Terminal Aerodrome Forecast
Issued by NWS

Home | Current Version | Previous Version | Text Only | Print | Product List | Glossary On
Versions: 1 2 3 4 5 6 7 8 9 10 11 12 13 14 15 16 17
000
FTUS45 KCYS 210747 AAA
TAFRWL
TAF AMD
KRWL 210747Z 2108/2206 03013G21KT 5SM -SN BR BKN040
      TEMPO 2108/2112 1SM -SN BR OVC015
     FM211200 02012KT 1/2SM -SN FG OVC007
     FM212200 33009KT P6SM VCSH BKN045=

USA.gov is the U.S. government's official web portal to all federal, state and local government web resources and services.